Time;durP1;ratioP1;P1;durP2;ratioP2;P2;SDS_P1;SDS_P2;PMS_P1;PMS_P2;Temp;Humidity;BMP_temperature;BMP_pressure;BME280_temperature;BME280_humidity;BME280_pressure;Samples;Min_cycle;Max_cycle;Signal;HPM_P1;HPM_P2
2021/03/06 09:20:18;;;;;;;8.13;5.63;;;16.10;36.10;;;;;;5103997;27;20544;-61
2021/03/06 09:22:48;;;;;;;9.80;5.00;;;14.00;39.20;;;;;;5090120;28;20202;-62
2021/03/06 09:25:30;;;;;;;8.23;3.83;;;13.70;39.40;;;;;;5087868;28;20232;-62
2021/03/06 09:27:57;;;;;;;7.07;4.55;;;13.70;39.30;;;;;;5079106;28;20576;-62
2021/03/06 09:30:39;;;;;;;6.47;3.90;;;13.50;40.00;;;;;;5094981;28;20267;-63
2021/03/06 09:33:26;;;;;;;4.13;3.35;;;12.30;40.60;;;;;;5094519;28;20208;-63
2021/03/06 09:35:57;;;;;;;12.35;4.43;;;10.40;44.80;;;;;;5089543;28;20215;-62
2021/03/06 09:38:29;;;;;;;8.60;4.40;;;9.10;48.10;;;;;;5079222;28;20212;-63
2021/03/06 09:40:56;;;;;;;5.85;3.92;;;8.00;50.00;;;;;;5086962;28;20200;-63
2021/03/06 09:43:30;;;;;;;5.35;3.08;;;7.30;52.70;;;;;;5094535;28;20201;-65
2021/03/06 09:45:58;;;;;;;6.63;4.60;;;7.20;53.30;;;;;;5081462;28;20297;-61
2021/03/06 09:48:26;;;;;;;7.20;3.75;;;7.30;54.20;;;;;;5083379;28;20203;-63
2021/03/06 09:50:58;;;;;;;6.72;3.47;;;7.10;53.90;;;;;;5086726;28;20211;-63
2021/03/06 09:53:27;;;;;;;3.80;3.17;;;6.80;54.00;;;;;;5091878;28;20209;-64
2021/03/06 09:56:10;;;;;;;9.38;3.45;;;6.60;55.80;;;;;;5095102;28;20418;-63
2021/03/06 09:58:39;;;;;;;10.07;4.20;;;6.50;56.90;;;;;;5088243;28;20504;-64
2021/03/06 10:01:17;;;;;;;7.72;3.60;;;6.40;58.20;;;;;;5092164;28;20519;-63
2021/03/06 10:03:46;;;;;;;4.95;3.22;;;6.50;59.50;;;;;;5094635;28;20232;-63
2021/03/06 10:06:15;;;;;;;4.60;3.90;;;6.40;57.60;;;;;;5094792;28;20296;-66
2021/03/06 10:08:49;;;;;;;5.80;3.55;;;6.40;58.10;;;;;;5097697;28;20206;-63
2021/03/06 10:11:16;;;;;;;7.00;4.70;;;6.20;57.90;;;;;;5094530;28;20220;-64
2021/03/06 10:13:44;;;;;;;6.47;5.07;;;6.10;58.40;;;;;;5081061;28;20248;-63
2021/03/06 10:16:11;;;;;;;6.10;3.83;;;6.20;59.30;;;;;;5085931;28;20207;-63
2021/03/06 10:18:40;;;;;;;4.63;2.85;;;6.30;58.20;;;;;;5061565;28;20559;-63
2021/03/06 10:21:22;;;;;;;6.00;3.00;;;6.30;58.20;;;;;;5070460;28;20203;-65
2021/03/06 10:23:50;;;;;;;3.88;2.90;;;6.20;57.40;;;;;;5079390;28;20275;-64
2021/03/06 10:26:16;;;;;;;5.13;3.15;;;6.20;58.00;;;;;;5070253;28;20227;-64
2021/03/06 10:28:43;;;;;;;5.22;3.00;;;6.20;57.40;;;;;;5081164;28;20491;-64
2021/03/06 10:31:29;;;;;;;8.05;4.25;;;6.20;57.00;;;;;;5079129;28;20244;-64
2021/03/06 10:33:57;;;;;;;3.95;3.55;;;6.20;57.50;;;;;;5066591;28;20222;-65
2021/03/06 10:36:25;;;;;;;7.05;3.58;;;6.20;56.70;;;;;;5078836;28;20400;-65
2021/03/06 10:39:11;;;;;;;3.58;3.22;;;6.20;56.90;;;;;;5071544;28;20209;-68
2021/03/06 10:41:38;;;;;;;3.03;2.72;;;6.20;56.70;;;;;;5085560;28;20520;-64
2021/03/06 10:44:05;;;;;;;6.50;4.45;;;6.10;56.60;;;;;;5084232;28;20234;-63
2021/03/06 10:46:32;;;;;;;4.00;3.20;;;6.20;57.20;;;;;;5077992;28;20280;-64
2021/03/06 10:49:09;;;;;;;4.38;3.70;;;6.30;56.30;;;;;;5083927;28;20214;-64
2021/03/06 10:51:43;;;;;;;4.28;3.30;;;6.50;55.40;;;;;;5077334;28;20244;-63
2021/03/06 10:54:10;;;;;;;7.60;3.28;;;6.70;56.20;;;;;;5065578;28;20610;-63
2021/03/06 10:56:38;;;;;;;8.13;3.00;;;7.00;56.10;;;;;;5070628;28;20425;-64
2021/03/06 10:59:06;;;;;;;4.93;3.25;;;7.20;54.40;;;;;;5073452;28;20203;-64
2021/03/06 11:01:47;;;;;;;10.50;3.88;;;7.40;53.90;;;;;;5066566;28;20275;-64
2021/03/06 11:04:43;;;;;;;10.77;3.05;;;7.40;53.50;;;;;;5065836;28;20496;-64
2021/03/06 11:07:09;;;;;;;8.27;3.45;;;7.50;51.80;;;;;;5048085;28;20562;-64
2021/03/06 11:09:38;;;;;;;6.78;3.95;;;7.50;52.40;;;;;;5065004;28;20730;-63
2021/03/06 11:12:21;;;;;;;5.57;3.92;;;7.40;51.70;;;;;;5086821;28;20203;-63
2021/03/06 11:15:16;;;;;;;3.28;2.92;;;7.20;51.80;;;;;;5071337;28;20225;-64
2021/03/06 11:17:45;;;;;;;3.65;2.90;;;7.00;51.60;;;;;;5076154;28;20202;-64
2021/03/06 11:20:16;;;;;;;4.82;3.33;;;6.90;52.90;;;;;;5085098;28;20241;-64
2021/03/06 11:22:43;;;;;;;4.60;3.85;;;6.90;54.20;;;;;;5081171;28;20204;-64
2021/03/06 11:25:14;;;;;;;4.22;2.67;;;7.00;53.00;;;;;;5083394;28;20555;-64
2021/03/06 11:27:42;;;;;;;3.58;2.55;;;6.90;52.50;;;;;;5075581;28;20302;-63
2021/03/06 11:30:10;;;;;;;4.05;3.42;;;6.90;54.50;;;;;;5077769;28;20501;-63
2021/03/06 11:32:37;;;;;;;6.80;3.03;;;6.70;54.20;;;;;;5089206;28;20214;-65
2021/03/06 11:35:06;;;;;;;7.43;2.55;;;6.70;54.10;;;;;;5095488;28;20207;-63
2021/03/06 11:37:33;;;;;;;4.60;2.75;;;6.80;52.90;;;;;;5078192;28;20211;-64
2021/03/06 11:39:59;;;;;;;5.30;3.38;;;6.90;52.60;;;;;;5078741;28;20206;-65
2021/03/06 11:42:26;;;;;;;4.93;2.25;;;6.90;52.40;;;;;;5090772;28;20504;-64
2021/03/06 11:44:52;;;;;;;4.68;3.08;;;6.80;51.80;;;;;;5077980;28;20226;-64
2021/03/06 11:47:19;;;;;;;2.70;2.33;;;6.80;52.70;;;;;;5077530;28;20203;-64
2021/03/06 11:49:46;;;;;;;4.82;2.75;;;6.90;53.60;;;;;;5078491;28;20211;-65
2021/03/06 11:52:13;;;;;;;4.38;3.00;;;6.90;52.80;;;;;;5077860;28;20207;-65
2021/03/06 11:54:39;;;;;;;5.47;2.97;;;6.90;52.10;;;;;;5078034;28;20211;-64
2021/03/06 11:57:23;;;;;;;7.43;3.67;;;7.00;52.40;;;;;;5089276;28;20203;-65
2021/03/06 11:59:50;;;;;;;5.65;3.90;;;6.90;53.00;;;;;;5087739;28;20466;-65
2021/03/06 12:02:16;;;;;;;5.35;3.67;;;6.90;53.10;;;;;;5077448;28;20206;-64
2021/03/06 12:04:43;;;;;;;10.35;3.85;;;6.80;53.50;;;;;;5072928;28;20198;-65
2021/03/06 12:07:10;;;;;;;4.10;3.65;;;6.70;54.20;;;;;;5084366;28;20225;-65
2021/03/06 12:09:36;;;;;;;16.90;5.20;;;6.40;55.70;;;;;;5093512;28;20206;-64
2021/03/06 12:12:04;;;;;;;3.97;3.50;;;6.10;57.10;;;;;;5084203;28;20582;-64
2021/03/06 12:14:31;;;;;;;10.50;4.15;;;6.10;56.90;;;;;;5088322;28;20202;-65
2021/03/06 12:16:58;;;;;;;6.43;3.47;;;6.30;57.30;;;;;;5087075;28;20218;-64
2021/03/06 12:19:25;;;;;;;4.47;3.17;;;6.30;57.20;;;;;;5077041;28;20238;-64
2021/03/06 12:21:53;;;;;;;4.25;3.50;;;6.30;55.90;;;;;;5069676;28;20282;-65
2021/03/06 12:24:19;;;;;;;4.55;2.92;;;6.30;56.90;;;;;;5083399;28;20229;-65
2021/03/06 12:26:47;;;;;;;4.55;3.53;;;6.50;55.70;;;;;;5074739;28;20241;-65
2021/03/06 12:29:14;;;;;;;5.38;3.00;;;6.70;55.30;;;;;;5071740;28;20202;-65
2021/03/06 12:31:41;;;;;;;16.92;4.95;;;6.90;53.60;;;;;;5073884;28;20276;-65
2021/03/06 12:34:13;;;;;;;6.38;3.00;;;7.00;53.90;;;;;;5074096;28;20211;-65
2021/03/06 12:36:39;;;;;;;6.47;2.85;;;7.10;51.70;;;;;;5075290;28;20374;-66
2021/03/06 12:39:07;;;;;;;5.50;3.10;;;7.10;51.40;;;;;;5074256;28;20405;-66
2021/03/06 12:41:34;;;;;;;5.95;3.45;;;7.00;51.90;;;;;;5073605;28;20492;-66
2021/03/06 12:44:01;;;;;;;4.95;3.15;;;6.90;51.90;;;;;;5086778;28;20237;-65
2021/03/06 12:46:27;;;;;;;5.20;2.85;;;6.80;52.70;;;;;;5085623;28;20230;-66
2021/03/06 12:48:54;;;;;;;6.72;2.97;;;6.80;52.60;;;;;;5089033;28;20249;-65
2021/03/06 12:51:21;;;;;;;7.38;3.05;;;7.10;52.50;;;;;;5086597;28;20296;-66
2021/03/06 12:53:48;;;;;;;8.77;3.33;;;6.60;51.90;;;;;;5076204;28;20202;-66
2021/03/06 12:56:14;;;;;;;2.63;2.28;;;6.30;53.00;;;;;;5075331;28;20273;-65
2021/03/06 12:58:41;;;;;;;4.50;3.90;;;6.30;53.40;;;;;;5073387;28;20732;-66
2021/03/06 13:01:07;;;;;;;3.30;2.67;;;6.50;53.30;;;;;;5070459;28;20203;-66
2021/03/06 13:03:34;;;;;;;4.63;3.25;;;6.50;53.80;;;;;;5077198;28;20244;-65
2021/03/06 13:06:01;;;;;;;8.00;4.18;;;6.50;53.40;;;;;;5086067;28;20483;-68
2021/03/06 13:08:27;;;;;;;3.20;2.72;;;6.60;52.60;;;;;;5075786;28;20209;-66
2021/03/06 13:10:54;;;;;;;4.72;3.58;;;6.70;52.00;;;;;;5084539;28;20214;-66
2021/03/06 13:13:21;;;;;;;8.15;3.83;;;6.80;52.50;;;;;;5081991;28;20237;-66
2021/03/06 13:15:47;;;;;;;4.22;3.30;;;6.80;51.70;;;;;;5077169;28;20592;-69
2021/03/06 13:18:15;;;;;;;6.97;3.80;;;6.60;52.20;;;;;;5075349;28;20460;-66
2021/03/06 13:20:42;;;;;;;6.55;4.03;;;6.40;52.90;;;;;;5071073;28;20202;-67
2021/03/06 13:23:08;;;;;;;3.55;3.25;;;6.40;53.50;;;;;;5076406;28;20209;-66
2021/03/06 13:25:39;;;;;;;7.43;3.70;;;6.50;54.20;;;;;;5076107;28;20257;-66
2021/03/06 13:28:08;;;;;;;5.68;3.65;;;6.60;54.70;;;;;;5078378;28;20207;-67
2021/03/06 13:30:35;;;;;;;3.13;2.47;;;6.60;54.50;;;;;;5077624;28;20207;-67
2021/03/06 13:33:17;;;;;;;3.90;3.15;;;6.80;53.00;;;;;;5077046;28;20211;-68
2021/03/06 13:35:44;;;;;;;4.57;2.42;;;6.90;53.20;;;;;;5076849;28;20217;-67
2021/03/06 13:38:10;;;;;;;5.65;2.40;;;7.00;52.90;;;;;;5076374;28;20497;-68
2021/03/06 13:40:37;;;;;;;2.40;2.20;;;6.70;50.80;;;;;;5076068;28;20211;-68
2021/03/06 13:43:04;;;;;;;5.97;2.70;;;6.60;50.10;;;;;;5080867;28;20291;-66
2021/03/06 13:45:31;;;;;;;4.35;2.63;;;6.60;50.60;;;;;;5075170;28;20233;-70
2021/03/06 13:47:58;;;;;;;2.53;2.10;;;6.60;51.40;;;;;;5075483;28;20203;-66
2021/03/06 13:50:30;;;;;;;11.30;2.80;;;6.60;51.50;;;;;;5078163;28;20270;-65
2021/03/06 13:53:01;;;;;;;3.50;1.90;;;6.60;52.20;;;;;;5076463;28;20203;-65
2021/03/06 13:55:28;;;;;;;5.43;2.47;;;6.60;52.00;;;;;;5083816;28;20218;-66
2021/03/06 13:57:55;;;;;;;5.85;2.10;;;6.50;51.80;;;;;;5084815;28;20210;-68
2021/03/06 14:00:22;;;;;;;4.28;2.10;;;6.50;52.10;;;;;;5081313;28;20380;-67
2021/03/06 14:02:49;;;;;;;3.22;2.60;;;6.50;51.80;;;;;;5077867;28;20221;-65
2021/03/06 14:05:17;;;;;;;3.20;2.80;;;6.40;51.90;;;;;;5079029;28;20241;-67
2021/03/06 14:07:43;;;;;;;4.05;2.72;;;6.50;51.30;;;;;;5080551;28;20210;-66
2021/03/06 14:10:12;;;;;;;2.42;2.20;;;6.30;51.60;;;;;;5076494;28;20257;-67
2021/03/06 14:12:39;;;;;;;8.18;3.15;;;6.30;50.40;;;;;;5070843;28;20218;-68
2021/03/06 14:15:07;;;;;;;10.75;3.30;;;6.30;51.40;;;;;;5079351;28;20266;-67
2021/03/06 14:17:34;;;;;;;4.60;2.30;;;6.30;51.40;;;;;;5081813;28;20203;-69
2021/03/06 14:20:02;;;;;;;4.50;3.00;;;6.30;53.00;;;;;;5072222;28;20290;-67
2021/03/06 14:22:29;;;;;;;6.53;2.20;;;6.20;53.90;;;;;;5068685;28;20261;-66
2021/03/06 14:24:55;;;;;;;3.88;2.50;;;6.10;53.50;;;;;;5078858;28;20214;-67
2021/03/06 14:27:22;;;;;;;4.13;2.58;;;6.10;52.90;;;;;;5077755;28;20516;-67
2021/03/06 14:29:54;;;;;;;4.65;2.70;;;6.10;52.60;;;;;;5078570;28;20497;-66
2021/03/06 14:32:22;;;;;;;1.95;1.75;;;6.20;53.40;;;;;;5056907;28;20217;-68
2021/03/06 14:34:49;;;;;;;2.65;2.42;;;6.10;53.30;;;;;;5072353;28;20298;-67
2021/03/06 14:37:19;;;;;;;4.32;2.00;;;6.10;52.60;;;;;;5071155;28;20388;-67
2021/03/06 14:39:49;;;;;;;2.60;2.40;;;6.10;52.30;;;;;;5072020;28;20214;-67
2021/03/06 14:42:16;;;;;;;3.42;2.50;;;6.10;53.40;;;;;;5078002;28;20221;-66
2021/03/06 14:44:43;;;;;;;3.90;3.10;;;6.00;53.20;;;;;;5097284;28;20214;-67
2021/03/06 14:47:10;;;;;;;2.30;2.10;;;6.00;53.10;;;;;;5075552;28;20602;-67
2021/03/06 14:49:39;;;;;;;3.53;2.60;;;6.10;52.60;;;;;;5074420;28;20211;-67
2021/03/06 14:52:06;;;;;;;5.85;2.30;;;6.00;55.20;;;;;;5075625;28;20232;-65
2021/03/06 14:54:34;;;;;;;2.55;2.30;;;5.90;54.40;;;;;;5067148;28;20202;-67
2021/03/06 14:57:02;;;;;;;4.68;2.92;;;5.90;53.30;;;;;;5089757;28;20269;-65
2021/03/06 14:59:29;;;;;;;5.63;3.17;;;5.90;54.00;;;;;;5078348;28;20224;-67
2021/03/06 15:01:56;;;;;;;7.20;2.85;;;5.80;53.10;;;;;;5077958;28;20551;-65
2021/03/06 15:04:41;;;;;;;3.88;2.85;;;5.70;55.50;;;;;;5077054;28;20210;-65
2021/03/06 15:07:15;;;;;;;2.95;2.45;;;5.80;54.50;;;;;;5073980;28;20210;-65
2021/03/06 15:09:43;;;;;;;2.92;2.40;;;5.70;55.30;;;;;;5078501;28;20476;-68
2021/03/06 15:12:11;;;;;;;4.65;2.92;;;5.70;55.30;;;;;;5083535;28;20253;-66
2021/03/06 15:14:46;;;;;;;2.97;2.70;;;5.70;56.00;;;;;;5083506;28;20201;-65
2021/03/06 15:17:13;;;;;;;5.10;2.88;;;5.70;56.60;;;;;;5083762;28;20527;-66
2021/03/06 15:19:41;;;;;;;2.58;2.38;;;5.60;56.00;;;;;;5069526;28;20279;-65
2021/03/06 15:22:07;;;;;;;2.90;2.70;;;5.60;56.10;;;;;;5076124;28;20194;-65
2021/03/06 15:24:34;;;;;;;3.50;3.20;;;5.60;56.30;;;;;;5079222;28;20512;-66
2021/03/06 15:27:01;;;;;;;3.05;2.80;;;5.60;56.80;;;;;;5083899;28;20230;-67
2021/03/06 15:29:28;;;;;;;3.50;3.08;;;5.50;58.10;;;;;;5092569;28;20209;-66
2021/03/06 15:31:55;;;;;;;3.72;2.70;;;5.40;57.80;;;;;;5078275;28;20209;-67
2021/03/06 15:34:22;;;;;;;4.57;3.58;;;5.40;57.20;;;;;;5078562;28;20241;-65
2021/03/06 15:36:48;;;;;;;6.00;2.95;;;5.40;57.10;;;;;;5087879;28;20206;-68
2021/03/06 15:39:15;;;;;;;4.25;3.10;;;5.40;58.50;;;;;;5067734;28;20229;-66
2021/03/06 15:41:42;;;;;;;7.20;3.97;;;5.40;56.60;;;;;;5075198;28;20217;-66
2021/03/06 15:44:08;;;;;;;5.47;3.65;;;5.30;58.30;;;;;;5078206;28;20213;-66
2021/03/06 15:46:36;;;;;;;3.13;2.88;;;5.30;57.20;;;;;;5077272;28;20230;-67
2021/03/06 15:49:03;;;;;;;6.22;3.47;;;5.30;58.70;;;;;;5080311;28;20546;-66
2021/03/06 15:51:31;;;;;;;6.53;3.35;;;5.10;57.50;;;;;;5080956;28;20207;-66
2021/03/06 15:53:58;;;;;;;4.38;3.88;;;5.10;60.10;;;;;;5081345;28;20265;-66
2021/03/06 15:56:24;;;;;;;4.63;4.10;;;4.90;61.00;;;;;;5078208;28;20225;-66
2021/03/06 15:58:51;;;;;;;4.45;3.08;;;5.00;59.50;;;;;;5076351;28;20228;-67
2021/03/06 16:01:18;;;;;;;6.85;3.60;;;4.90;61.70;;;;;;5069151;28;20206;-65
2021/03/06 16:03:45;;;;;;;6.80;4.57;;;5.00;60.40;;;;;;5077760;28;20213;-67
2021/03/06 16:06:12;;;;;;;4.78;4.07;;;5.00;59.90;;;;;;5071903;28;20605;-66
2021/03/06 16:08:43;;;;;;;6.00;4.20;;;4.90;61.80;;;;;;5084144;28;20206;-65
2021/03/06 16:11:10;;;;;;;4.88;4.40;;;4.80;61.80;;;;;;5080192;28;20206;-66
2021/03/06 16:13:38;;;;;;;7.05;3.83;;;4.80;61.80;;;;;;5078130;28;20210;-65
2021/03/06 16:16:06;;;;;;;9.25;5.45;;;4.80;62.10;;;;;;5077137;28;20461;-66
2021/03/06 16:18:33;;;;;;;5.70;5.00;;;4.60;62.60;;;;;;5078062;28;20249;-66
2021/03/06 16:21:02;;;;;;;7.07;3.70;;;4.60;62.90;;;;;;5077248;28;20202;-66
2021/03/06 16:23:30;;;;;;;7.05;5.00;;;4.50;64.60;;;;;;5077372;28;20404;-66
2021/03/06 16:25:56;;;;;;;5.90;3.85;;;4.40;63.30;;;;;;5076873;28;20241;-65
2021/03/06 16:28:23;;;;;;;8.85;5.05;;;4.40;63.60;;;;;;5082371;28;20224;-65
2021/03/06 16:30:50;;;;;;;4.43;3.65;;;4.30;63.90;;;;;;5085152;28;20208;-65
2021/03/06 16:33:17;;;;;;;9.18;5.35;;;4.10;65.50;;;;;;5077895;28;20414;-66
2021/03/06 16:35:50;;;;;;;9.27;4.78;;;4.10;65.60;;;;;;5075358;28;20265;-66
2021/03/06 16:38:18;;;;;;;11.45;4.80;;;4.10;64.40;;;;;;5075112;28;20546;-66
2021/03/06 16:40:46;;;;;;;3.35;3.08;;;4.10;65.10;;;;;;5076213;28;20332;-65
2021/03/06 16:43:13;;;;;;;5.88;4.32;;;4.00;65.90;;;;;;5076716;28;20213;-66
2021/03/06 16:45:41;;;;;;;8.00;6.00;;;3.90;66.10;;;;;;5073249;28;20238;-65
2021/03/06 16:48:08;;;;;;;8.25;5.15;;;3.80;67.20;;;;;;5077016;28;20213;-65
2021/03/06 16:50:35;;;;;;;8.98;4.55;;;3.80;66.60;;;;;;5077222;28;20216;-65
2021/03/06 16:53:02;;;;;;;5.20;4.18;;;3.80;67.10;;;;;;5077072;28;20202;-66
2021/03/06 16:55:29;;;;;;;5.80;4.78;;;3.70;67.10;;;;;;5072925;28;20232;-66
2021/03/06 16:57:56;;;;;;;8.02;4.90;;;3.80;66.50;;;;;;5075932;28;20216;-65
2021/03/06 17:00:23;;;;;;;7.47;4.75;;;3.70;67.20;;;;;;5075964;28;20615;-66
2021/03/06 17:02:49;;;;;;;7.20;5.00;;;3.50;67.30;;;;;;5077039;28;20213;-66
2021/03/06 17:05:16;;;;;;;4.82;4.32;;;3.50;67.10;;;;;;5078504;28;20302;-66
2021/03/06 17:07:43;;;;;;;8.63;4.05;;;3.40;67.10;;;;;;5076289;28;20247;-66
2021/03/06 17:10:10;;;;;;;5.57;4.88;;;3.40;67.40;;;;;;5085407;28;20243;-65
2021/03/06 17:12:37;;;;;;;7.60;4.80;;;3.70;67.50;;;;;;5077085;28;20210;-65
2021/03/06 17:15:05;;;;;;;8.30;5.15;;;3.30;68.20;;;;;;5085074;28;20206;-65
2021/03/06 17:17:32;;;;;;;6.57;4.78;;;3.20;69.10;;;;;;5075788;28;20200;-65
2021/03/06 17:19:59;;;;;;;9.18;5.32;;;3.20;70.10;;;;;;5075790;28;20235;-65
2021/03/06 17:22:26;;;;;;;6.20;4.57;;;3.10;69.50;;;;;;5076330;28;20203;-66
2021/03/06 17:24:53;;;;;;;6.75;4.80;;;3.10;69.60;;;;;;5088235;28;20208;-66
2021/03/06 17:27:19;;;;;;;8.75;5.72;;;3.20;69.50;;;;;;5076793;28;20241;-66
2021/03/06 17:29:46;;;;;;;8.50;5.85;;;3.00;69.90;;;;;;5083205;28;20268;-65
2021/03/06 17:32:13;;;;;;;11.73;6.80;;;3.00;70.70;;;;;;5081290;28;20577;-65
2021/03/06 17:34:44;;;;;;;7.15;5.50;;;3.00;71.60;;;;;;5078202;28;20212;-65
2021/03/06 17:37:12;;;;;;;8.25;5.38;;;2.80;72.60;;;;;;5075704;28;20232;-65
2021/03/06 17:39:39;;;;;;;11.80;6.38;;;2.90;73.10;;;;;;5084551;28;20210;-65
2021/03/06 17:42:05;;;;;;;7.20;6.07;;;2.80;74.30;;;;;;5070726;28;20226;-66
2021/03/06 17:44:33;;;;;;;12.35;6.60;;;2.80;73.70;;;;;;5078901;28;20212;-66
2021/03/06 17:46:59;;;;;;;7.85;5.10;;;2.80;74.30;;;;;;5076391;28;20455;-66
2021/03/06 17:49:26;;;;;;;9.20;6.03;;;2.80;75.10;;;;;;5073293;28;20364;-67
2021/03/06 17:51:54;;;;;;;17.50;7.53;;;2.80;74.80;;;;;;5075837;28;20208;-65
2021/03/06 17:54:20;;;;;;;12.35;6.72;;;2.80;75.30;;;;;;5080008;28;20216;-65
2021/03/06 17:56:47;;;;;;;11.80;7.15;;;2.70;76.20;;;;;;5073681;28;20241;-65
2021/03/06 17:59:14;;;;;;;12.20;7.05;;;2.60;76.70;;;;;;5077630;28;20201;-65
2021/03/06 18:01:40;;;;;;;11.15;7.47;;;2.80;76.80;;;;;;5077665;28;20206;-66
2021/03/06 18:04:07;;;;;;;13.43;7.50;;;2.60;76.90;;;;;;5074506;28;20270;-65
2021/03/06 18:06:54;;;;;;;9.63;7.75;;;2.60;77.20;;;;;;5081074;28;20230;-66
2021/03/06 18:09:20;;;;;;;12.57;7.38;;;2.50;77.90;;;;;;5073955;28;20253;-67
2021/03/06 18:11:47;;;;;;;11.82;9.05;;;2.50;78.30;;;;;;5074594;28;20230;-66
2021/03/06 18:14:14;;;;;;;16.15;9.35;;;2.40;78.80;;;;;;5072130;28;20203;-67
2021/03/06 18:16:40;;;;;;;16.10;9.60;;;2.30;78.90;;;;;;5079574;28;20203;-66
2021/03/06 18:19:07;;;;;;;12.82;9.65;;;2.40;79.00;;;;;;5079225;28;20296;-66
2021/03/06 18:21:34;;;;;;;13.38;9.48;;;2.30;80.00;;;;;;5072974;28;20247;-66
2021/03/06 18:24:01;;;;;;;16.55;10.65;;;2.30;79.80;;;;;;5073875;28;20547;-66
2021/03/06 18:26:27;;;;;;;15.98;11.13;;;2.30;80.60;;;;;;5073973;28;20417;-66
2021/03/06 18:28:54;;;;;;;21.70;12.57;;;2.20;81.20;;;;;;5084216;28;20202;-65
2021/03/06 18:31:21;;;;;;;32.38;11.52;;;2.20;81.40;;;;;;5084138;28;20531;-66
2021/03/06 18:33:47;;;;;;;24.95;11.27;;;2.10;81.40;;;;;;5083324;28;20206;-65
2021/03/06 18:36:15;;;;;;;10.73;8.93;;;2.00;82.50;;;;;;5079203;28;20196;-65
2021/03/06 18:38:41;;;;;;;16.65;10.55;;;2.00;82.80;;;;;;5081183;28;20231;-66
2021/03/06 18:41:08;;;;;;;15.63;11.73;;;0.90;82.20;;;;;;5084917;28;20238;-65
2021/03/06 18:43:35;;;;;;;20.48;10.55;;;2.00;82.70;;;;;;5078585;28;20499;-65
2021/03/06 18:46:02;;;;;;;20.58;11.15;;;1.90;82.90;;;;;;5078649;28;20287;-66
2021/03/06 18:48:29;;;;;;;24.48;13.02;;;1.90;83.20;;;;;;5072889;28;20410;-65
2021/03/06 18:50:56;;;;;;;18.85;11.70;;;1.90;83.10;;;;;;5067511;28;20212;-66
2021/03/06 18:53:23;;;;;;;20.70;12.57;;;1.90;83.70;;;;;;5072478;28;20226;-65
2021/03/06 18:55:50;;;;;;;19.70;12.43;;;1.80;84.30;;;;;;5070951;28;20514;-65
2021/03/06 18:58:16;;;;;;;15.63;11.52;;;1.80;83.90;;;;;;5071606;28;20203;-66
2021/03/06 19:00:43;;;;;;;14.73;10.48;;;1.90;84.00;;;;;;5067780;28;20203;-66
2021/03/06 19:03:10;;;;;;;15.98;10.98;;;1.90;84.00;;;;;;5073943;28;20203;-66
2021/03/06 19:05:37;;;;;;;19.02;10.35;;;2.10;83.50;;;;;;5078044;28;20268;-66
2021/03/06 19:08:05;;;;;;;22.70;13.02;;;3.00;84.70;;;;;;5069958;28;20208;-65
2021/03/06 19:10:32;;;;;;;22.63;11.10;;;2.10;84.00;;;;;;5081221;28;20206;-65
2021/03/06 19:12:59;;;;;;;17.30;11.35;;;2.40;83.00;;;;;;5072695;28;20203;-66
2021/03/06 19:15:26;;;;;;;29.92;14.55;;;2.40;82.90;;;;;;5071706;28;20211;-66
2021/03/06 19:17:53;;;;;;;27.17;13.30;;;2.60;81.90;;;;;;5077565;28;20270;-68
2021/03/06 19:20:20;;;;;;;26.98;14.43;;;2.80;81.20;;;;;;5082498;28;20238;-65
2021/03/06 19:22:47;;;;;;;21.50;12.27;;;2.90;81.50;;;;;;5069964;28;20203;-66
2021/03/06 19:25:14;;;;;;;15.60;11.88;;;3.00;80.00;;;;;;5080317;28;20230;-65
2021/03/06 19:27:41;;;;;;;19.65;13.60;;;2.80;81.10;;;;;;5070899;28;20544;-66
2021/03/06 19:30:10;;;;;;;33.47;16.02;;;2.60;81.30;;;;;;5096780;28;20230;-65
2021/03/06 19:32:42;;;;;;;36.22;19.67;;;2.60;81.30;;;;;;5087771;28;20242;-66
2021/03/06 19:35:10;;;;;;;23.33;15.50;;;2.70;82.30;;;;;;5092207;28;20394;-65
2021/03/06 19:37:57;;;;;;;35.08;15.63;;;2.70;81.80;;;;;;5082523;28;20260;-66
2021/03/06 19:40:24;;;;;;;25.38;15.90;;;2.60;82.10;;;;;;5080766;28;20207;-66
2021/03/06 19:42:51;;;;;;;34.75;18.33;;;2.60;82.30;;;;;;5078667;28;20494;-67
2021/03/06 19:45:18;;;;;;;28.48;17.23;;;2.60;82.80;;;;;;5081158;28;20209;-66
2021/03/06 19:47:45;;;;;;;19.23;13.63;;;2.50;83.10;;;;;;5078486;28;20324;-65
2021/03/06 19:50:14;;;;;;;26.80;13.05;;;2.30;84.70;;;;;;5077024;28;20217;-66
2021/03/06 19:52:41;;;;;;;23.30;14.40;;;2.50;83.50;;;;;;5078319;28;20414;-65
2021/03/06 19:55:08;;;;;;;18.45;11.70;;;2.30;83.90;;;;;;5076492;28;20203;-66
2021/03/06 19:57:35;;;;;;;18.50;11.73;;;2.30;84.20;;;;;;5071461;28;20213;-66
2021/03/06 20:00:04;;;;;;;17.58;10.88;;;2.30;84.60;;;;;;5078141;28;20215;-67
2021/03/06 20:02:31;;;;;;;13.20;10.20;;;2.50;84.40;;;;;;5084619;28;20211;-66
2021/03/06 20:04:58;;;;;;;13.25;10.40;;;2.60;84.10;;;;;;5077197;28;20203;-66
2021/03/06 20:07:25;;;;;;;22.02;10.25;;;2.70;83.70;;;;;;5085290;28;20543;-66
2021/03/06 20:09:52;;;;;;;13.93;10.38;;;2.80;83.00;;;;;;5085770;28;20235;-64
2021/03/06 20:12:20;;;;;;;11.30;9.52;;;2.80;83.00;;;;;;5085696;28;20512;-66
2021/03/06 20:14:46;;;;;;;18.05;11.90;;;2.90;82.60;;;;;;5077542;28;20207;-66
2021/03/06 20:17:14;;;;;;;19.08;10.95;;;3.00;82.00;;;;;;5085637;28;20286;-67
2021/03/06 20:19:43;;;;;;;17.67;10.45;;;3.00;82.40;;;;;;5074588;28;20249;-65
2021/03/06 20:22:14;;;;;;;28.58;13.75;;;2.90;82.00;;;;;;5077224;28;20207;-65
2021/03/06 20:24:41;;;;;;;33.92;15.80;;;3.10;81.90;;;;;;5077126;28;20208;-65
2021/03/06 20:27:08;;;;;;;19.33;13.35;;;3.20;81.30;;;;;;5076993;28;20534;-65
2021/03/06 20:29:35;;;;;;;22.90;10.93;;;3.20;81.20;;;;;;5063179;28;20277;-66
2021/03/06 20:32:04;;;;;;;23.70;13.80;;;3.20;81.50;;;;;;5081045;28;20696;-66
2021/03/06 20:34:32;;;;;;;22.35;11.68;;;3.20;81.20;;;;;;5084954;28;20225;-66
2021/03/06 20:37:00;;;;;;;15.45;11.00;;;3.30;81.60;;;;;;5077831;28;20226;-65
2021/03/06 20:39:28;;;;;;;21.70;10.43;;;3.30;81.70;;;;;;5082738;28;20211;-67
2021/03/06 20:41:55;;;;;;;19.20;11.55;;;3.20;81.40;;;;;;5073365;28;20204;-66
2021/03/06 20:44:22;;;;;;;16.85;12.27;;;3.20;81.90;;;;;;5087161;28;20204;-65
2021/03/06 20:46:49;;;;;;;18.38;12.85;;;3.30;81.60;;;;;;5079574;28;20286;-65
2021/03/06 20:49:17;;;;;;;20.10;11.68;;;3.40;81.70;;;;;;5091480;28;20265;-66
2021/03/06 20:51:44;;;;;;;20.52;12.30;;;3.40;81.50;;;;;;5071216;28;20749;-66
2021/03/06 20:54:12;;;;;;;15.77;10.20;;;3.30;81.40;;;;;;5076020;28;20223;-66
2021/03/06 20:56:39;;;;;;;17.42;10.57;;;2.90;81.90;;;;;;5081657;28;20209;-66
2021/03/06 20:59:06;;;;;;;18.63;12.18;;;3.40;81.70;;;;;;5076678;28;20242;-66
2021/03/06 21:01:36;;;;;;;14.73;10.75;;;3.40;81.60;;;;;;5090731;28;20207;-65
2021/03/06 21:04:05;;;;;;;15.82;9.95;;;3.50;81.00;;;;;;5079038;28;20220;-64
2021/03/06 21:06:32;;;;;;;16.55;10.85;;;3.40;80.90;;;;;;5076437;28;20235;-65
2021/03/06 21:09:07;;;;;;;21.35;11.10;;;3.30;81.20;;;;;;5076333;28;20209;-66
2021/03/06 21:11:35;;;;;;;18.65;11.38;;;3.10;82.30;;;;;;5080453;28;20254;-64
2021/03/06 21:14:04;;;;;;;15.50;11.02;;;3.10;82.50;;;;;;5076905;28;20204;-66
2021/03/06 21:16:31;;;;;;;16.45;9.15;;;3.10;81.80;;;;;;5084950;28;20219;-65
2021/03/06 21:18:58;;;;;;;34.80;10.00;;;3.10;82.30;;;;;;5082515;28;20546;-64
2021/03/06 21:21:25;;;;;;;14.40;8.52;;;2.90;82.90;;;;;;5074211;28;20200;-66
2021/03/06 21:23:53;;;;;;;13.75;10.63;;;3.00;82.30;;;;;;5076546;28;20276;-66
2021/03/06 21:26:20;;;;;;;14.52;9.07;;;3.00;82.90;;;;;;5080162;28;20481;-66
2021/03/06 21:28:46;;;;;;;12.75;9.00;;;3.00;82.90;;;;;;5082482;28;20460;-67
2021/03/06 21:31:15;;;;;;;15.65;10.07;;;3.00;83.20;;;;;;5082850;28;20681;-66
2021/03/06 21:33:42;;;;;;;18.55;12.45;;;2.80;84.60;;;;;;5075006;28;20205;-67
2021/03/06 21:36:09;;;;;;;17.83;8.60;;;3.00;83.10;;;;;;5076388;28;20215;-66
2021/03/06 21:38:36;;;;;;;16.45;10.57;;;3.00;83.10;;;;;;5075872;28;20249;-67
2021/03/06 21:41:04;;;;;;;22.95;10.30;;;2.80;82.40;;;;;;5074461;28;20254;-67
2021/03/06 21:43:32;;;;;;;16.80;9.82;;;3.10;83.00;;;;;;5076934;28;20230;-66
2021/03/06 21:45:59;;;;;;;15.70;10.30;;;3.20;82.70;;;;;;5082587;28;20421;-67
2021/03/06 21:48:26;;;;;;;16.27;9.00;;;3.10;82.80;;;;;;5076048;28;20233;-66
2021/03/06 21:50:53;;;;;;;10.35;7.93;;;3.20;82.50;;;;;;5079018;28;20199;-67
2021/03/06 21:53:20;;;;;;;14.80;8.13;;;3.40;82.50;;;;;;5074434;28;20207;-67
2021/03/06 21:55:47;;;;;;;14.43;9.30;;;3.40;82.40;;;;;;5077861;28;20284;-67
2021/03/06 21:58:15;;;;;;;17.60;8.48;;;3.40;83.30;;;;;;5080685;28;20212;-69
2021/03/06 22:00:43;;;;;;;14.45;9.40;;;3.30;82.60;;;;;;5075168;28;20204;-66
2021/03/06 22:03:10;;;;;;;10.10;7.78;;;3.30;83.00;;;;;;5077736;28;20537;-66
2021/03/06 22:05:40;;;;;;;11.50;8.18;;;4.30;83.60;;;;;;5076755;28;20261;-67
2021/03/06 22:08:06;;;;;;;13.02;8.85;;;3.40;82.90;;;;;;5082605;28;20223;-66
2021/03/06 22:10:33;;;;;;;13.43;8.50;;;3.50;82.50;;;;;;5075981;28;20210;-65
2021/03/06 22:13:03;;;;;;;11.32;8.30;;;3.40;83.20;;;;;;5079060;28;20702;-66
2021/03/06 22:15:29;;;;;;;16.90;9.00;;;3.40;83.70;;;;;;5082107;28;20204;-66